This is the latest recevied weather packets stored in our database for station/object SQ9PDE-13. If no packets are shown the sender has not sent any weather packets the latest 10 day(s).
| Time | Temp. | Humidity | Pressure | Rain* | Wind** | Luminosity | Snow |
|---|---|---|---|---|---|---|---|
| 1787720638 | 15° C | 75% | 1022.6 hPa | - | - | - | - |
| 1787720337 | 14.44° C | 74% | 1022.6 hPa | - | - | - | - |
| 1787720037 | 14.44° C | 75% | 1022.6 hPa | - | - | - | - |
| 1787719736 | 14.44° C | 76% | 1022.6 hPa | - | - | - | - |
| 1787719642 | 14.44° C | 76% | 1022.5 hPa | - | - | - | - |
| 1787719501 | 14.44° C | 77% | 1022.7 hPa | - | - | - | - |
| 1787719436 | 14.44° C | 77% | 1022.7 hPa | - | - | - | - |
| 1787719136 | 13.89° C | 80% | 1022.8 hPa | - | - | - | - |
| 1787718835 | 13.89° C | 80% | 1022.8 hPa | - | - | - | - |
| 1787718534 | 13.89° C | 80% | 1022.8 hPa | - | - | - | - |
| 1787718234 | 13.89° C | 80% | 1022.7 hPa | - | - | - | - |
| 1787717933 | 13.89° C | 78% | 1022.7 hPa | - | - | - | - |
| 1787717633 | 14.44° C | 75% | 1022.5 hPa | - | - | - | - |
| 1787717332 | 13.89° C | 77% | 1022.6 hPa | - | - | - | - |
| 1787717032 | 13.89° C | 79% | 1022.6 hPa | - | - | - | - |
| 1787716731 | 13.89° C | 78% | 1022.6 hPa | - | - | - | - |
| 1787716510 | 13.89° C | 78% | 1022.7 hPa | - | - | - | - |
| 1787716430 | 13.89° C | 78% | 1022.7 hPa | - | - | - | - |
| 1787716186 | 13.89° C | 78% | 1022.6 hPa | - | - | - | - |
| 1787716130 | 13.89° C | 78% | 1022.6 hPa | - | - | - | - |
| 1787715901 | 14.44° C | 76% | 1022.5 hPa | - | - | - | - |
| 1787715829 | 14.44° C | 76% | 1022.5 hPa | - | - | - | - |
| 1787715580 | 14.44° C | 76% | 1022.5 hPa | - | - | - | - |
| 1787715529 | 14.44° C | 76% | 1022.5 hPa | - | - | - | - |
| 1787715356 | 14.44° C | 75% | 1022.5 hPa | - | - | - | - |
* Rain since midnight (hover to see other rain measurements)
** Current wind speed in m/s (hover to see current wind gust speed)